Time;durP1;ratioP1;P1;durP2;ratioP2;P2;SDS_P1;SDS_P2;PMS_P1;PMS_P2;Temp;Humidity;BMP_temperature;BMP_pressure;BME280_temperature;BME280_humidity;BME280_pressure;Samples;Min_cycle;Max_cycle;Signal;HPM_P1;HPM_P2
2021/07/27 00:01:28;;;;;;;21.08;14.27;;;;;;;;;;5060999;28;20544;-80
2021/07/27 00:03:55;;;;;;;19.13;13.40;;;;;;;;;;5097566;28;20100;-77
2021/07/27 00:06:21;;;;;;;16.27;12.20;;;;;;;;;;5064760;28;20035;-79
2021/07/27 00:08:48;;;;;;;18.80;13.60;;;;;;;;;;5077379;28;20119;-76
2021/07/27 00:11:16;;;;;;;15.93;12.27;;;;;;;;;;5072567;28;20524;-78
2021/07/27 00:13:42;;;;;;;18.20;11.93;;;;;;;;;;5099268;28;20036;-76
2021/07/27 00:16:09;;;;;;;17.17;12.57;;;;;;;;;;5081429;28;20418;-77
2021/07/27 00:18:36;;;;;;;16.45;13.00;;;;;;;;;;5078549;28;20059;-78
2021/07/27 00:21:05;;;;;;;17.85;14.10;;;;;;;;;;5073010;28;20062;-79
2021/07/27 00:23:34;;;;;;;16.67;14.73;;;;;;;;;;5064878;28;20489;-80
2021/07/27 00:26:10;;;;;;;16.20;12.30;;;;;;;;;;5036750;28;20511;-78
2021/07/27 00:28:37;;;;;;;18.05;13.25;;;;;;;;;;5076668;28;20043;-78
2021/07/27 00:31:03;;;;;;;15.15;11.77;;;;;;;;;;5084031;28;20039;-77
2021/07/27 00:33:31;;;;;;;17.10;13.40;;;;;;;;;;5073425;28;20048;-80
2021/07/27 00:35:59;;;;;;;18.95;14.52;;;;;;;;;;5084965;28;20405;-76
2021/07/27 00:38:26;;;;;;;20.25;13.90;;;;;;;;;;5082452;28;20044;-76
2021/07/27 00:40:53;;;;;;;17.52;13.43;;;;;;;;;;5089743;28;20070;-76
2021/07/27 00:43:20;;;;;;;17.45;13.02;;;;;;;;;;5060616;28;20043;-80
2021/07/27 00:45:47;;;;;;;19.27;15.48;;;;;;;;;;5007778;28;20052;-76
2021/07/27 00:48:13;;;;;;;19.00;15.85;;;;;;;;;;5062897;28;20493;-77
2021/07/27 00:50:41;;;;;;;20.42;14.82;;;;;;;;;;5058141;28;20044;-76
2021/07/27 00:53:07;;;;;;;21.92;17.20;;;;;;;;;;5067832;28;20075;-76
2021/07/27 00:55:35;;;;;;;21.00;17.40;;;;;;;;;;5060559;28;20039;-77
2021/07/27 00:58:02;;;;;;;20.42;16.38;;;;;;;;;;5003269;28;20039;-79
2021/07/27 01:00:30;;;;;;;19.95;14.27;;;;;;;;;;5011757;28;20415;-77
2021/07/27 01:02:57;;;;;;;21.75;16.13;;;;;;;;;;5049720;28;20051;-75
2021/07/27 01:05:29;;;;;;;21.60;16.25;;;;;;;;;;5079991;28;20155;-76
2021/07/27 01:07:58;;;;;;;18.33;15.40;;;;;;;;;;5083127;28;20054;-79
2021/07/27 01:10:25;;;;;;;24.00;17.92;;;;;;;;;;5067272;28;20097;-76
2021/07/27 01:12:51;;;;;;;29.00;24.33;;;;;;;;;;5001374;28;20139;-76
2021/07/27 01:15:18;;;;;;;28.90;19.67;;;;;;;;;;5073785;28;20046;-76
2021/07/27 01:17:45;;;;;;;41.30;29.08;;;;;;;;;;5069587;28;20082;-75
2021/07/27 01:20:28;;;;;;;30.27;24.50;;;;;;;;;;5068698;28;20079;-76
2021/07/27 01:39:27;;;;;;;;;;;;;;;;;;5077706;28;20125;-73
2021/07/27 01:42:13;;;;;;;32.45;21.17;;;;;;;;;;5033518;28;19968;-74
2021/07/27 01:44:46;;;;;;;39.33;25.75;;;;;;;;;;5061563;28;20580;-77
2021/07/27 01:47:23;;;;;;;35.35;21.70;;;;;;;;;;5082401;28;20039;-77
2021/07/27 01:49:50;;;;;;;31.08;21.17;;;;;;;;;;5067380;28;20043;-79
2021/07/27 01:52:23;;;;;;;30.52;20.17;;;;;;;;;;5071045;28;20040;-80
2021/07/27 01:54:59;;;;;;;32.55;24.02;;;;;;;;;;5088120;28;20535;-78
2021/07/27 01:57:31;;;;;;;33.15;24.98;;;;;;;;;;5035433;28;20048;-77
2021/07/27 02:00:00;;;;;;;30.33;19.38;;;;;;;;;;5104472;28;20100;-77
2021/07/27 02:02:27;;;;;;;26.17;18.90;;;;;;;;;;5086150;28;20052;-76
2021/07/27 02:04:53;;;;;;;26.45;18.05;;;;;;;;;;5071943;28;20043;-80
2021/07/27 02:07:20;;;;;;;26.63;19.83;;;;;;;;;;5063565;28;20062;-79
2021/07/27 02:09:49;;;;;;;27.65;20.13;;;;;;;;;;5066977;28;20131;-85
2021/07/27 02:12:22;;;;;;;30.42;22.35;;;;;;;;;;5072695;28;20090;-81
2021/07/27 02:17:31;;;;;;;34.15;25.02;;;;;;;;;;5084748;28;20053;-80
2021/07/27 02:20:00;;;;;;;44.75;34.17;;;;;;;;;;5082078;28;20116;-81
2021/07/27 02:22:27;;;;;;;34.75;25.83;;;;;;;;;;5061639;28;20407;-80
2021/07/27 02:24:53;;;;;;;33.10;22.67;;;;;;;;;;5058554;28;20093;-80
2021/07/27 02:27:20;;;;;;;30.23;20.70;;;;;;;;;;5076240;28;20048;-80
2021/07/27 02:29:46;;;;;;;29.60;20.65;;;;;;;;;;5048341;28;20541;-80
2021/07/27 02:32:18;;;;;;;52.03;30.40;;;;;;;;;;5083014;28;20055;-81
2021/07/27 02:34:45;;;;;;;39.17;25.58;;;;;;;;;;5052595;28;20139;-81
2021/07/27 02:37:15;;;;;;;44.53;26.50;;;;;;;;;;5057024;28;20051;-84
2021/07/27 02:39:42;;;;;;;45.22;27.63;;;;;;;;;;5072363;28;20417;-80
2021/07/27 02:42:08;;;;;;;38.20;26.10;;;;;;;;;;5082631;28;20039;-80
2021/07/27 02:44:35;;;;;;;31.52;23.00;;;;;;;;;;5051144;28;20058;-80
2021/07/27 02:47:04;;;;;;;28.73;20.13;;;;;;;;;;5057644;28;20476;-80
2021/07/27 02:49:31;;;;;;;27.98;20.13;;;;;;;;;;5078848;28;20044;-77
2021/07/27 02:51:57;;;;;;;24.55;18.17;;;;;;;;;;5083755;28;20126;-80
2021/07/27 02:54:24;;;;;;;23.83;19.00;;;;;;;;;;5068061;28;20130;-79
2021/07/27 02:56:50;;;;;;;29.00;20.15;;;;;;;;;;5083947;28;20478;-78
2021/07/27 02:59:17;;;;;;;27.02;20.77;;;;;;;;;;5060800;28;20047;-79
2021/07/27 03:01:47;;;;;;;34.75;24.70;;;;;;;;;;5082131;28;20043;-79
2021/07/27 03:04:13;;;;;;;36.55;26.13;;;;;;;;;;5087302;28;20105;-80
2021/07/27 03:06:41;;;;;;;33.90;24.25;;;;;;;;;;5083029;28;20043;-80
2021/07/27 03:12:04;;;;;;;38.13;26.25;;;;;;;;;;5088583;28;20053;-84
2021/07/27 03:14:31;;;;;;;27.65;19.85;;;;;;;;;;5081637;28;20405;-82
2021/07/27 03:16:57;;;;;;;27.13;18.92;;;;;;;;;;5088765;28;20103;-80
2021/07/27 03:19:23;;;;;;;23.77;15.48;;;;;;;;;;5093056;28;20080;-79
2021/07/27 03:21:50;;;;;;;16.80;12.90;;;;;;;;;;5085511;28;20113;-79
2021/07/27 03:24:16;;;;;;;14.00;10.05;;;;;;;;;;5082746;28;20487;-80
2021/07/27 03:26:43;;;;;;;11.70;7.00;;;;;;;;;;5055059;28;20043;-78
2021/07/27 03:29:09;;;;;;;6.15;4.10;;;;;;;;;;5080388;28;20043;-79
2021/07/27 03:31:36;;;;;;;4.43;3.08;;;;;;;;;;5100509;28;20048;-79
2021/07/27 03:34:03;;;;;;;4.32;2.60;;;;;;;;;;5084075;28;20051;-78
2021/07/27 03:36:30;;;;;;;4.10;2.60;;;;;;;;;;5085975;28;20910;-79
2021/07/27 03:38:57;;;;;;;9.55;4.45;;;;;;;;;;5094348;28;20126;-79
2021/07/27 03:41:25;;;;;;;3.92;2.33;;;;;;;;;;5060281;28;20040;-79
2021/07/27 03:43:52;;;;;;;4.10;2.35;;;;;;;;;;5078389;28;20043;-79
2021/07/27 03:46:18;;;;;;;3.47;2.55;;;;;;;;;;5080693;28;20131;-79
2021/07/27 03:48:45;;;;;;;5.35;2.90;;;;;;;;;;5091950;28;20043;-78
2021/07/27 03:51:13;;;;;;;4.05;3.00;;;;;;;;;;5085870;28;20378;-79
2021/07/27 03:53:39;;;;;;;3.38;2.03;;;;;;;;;;5090309;28;20036;-79
2021/07/27 03:56:16;;;;;;;2.45;1.10;;;;;;;;;;5094016;28;20047;-79
2021/07/27 03:58:44;;;;;;;3.45;1.42;;;;;;;;;;5070277;28;20181;-79
2021/07/27 04:01:14;;;;;;;2.53;1.42;;;;;;;;;;5050371;28;20101;-80
2021/07/27 04:03:40;;;;;;;2.05;1.05;;;;;;;;;;5091401;28;20047;-81
2021/07/27 04:06:08;;;;;;;1.20;0.90;;;;;;;;;;5102870;28;20079;-78
2021/07/27 04:08:35;;;;;;;1.27;0.70;;;;;;;;;;5097077;28;20063;-79
2021/07/27 04:11:05;;;;;;;2.42;1.45;;;;;;;;;;5070538;28;20043;-81
2021/07/27 04:13:34;;;;;;;1.67;1.20;;;;;;;;;;5084168;28;20066;-86
2021/07/27 04:16:01;;;;;;;1.40;0.90;;;;;;;;;;5088348;28;20044;-79
2021/07/27 04:18:31;;;;;;;1.85;1.30;;;;;;;;;;5073114;28;20078;-79
2021/07/27 04:21:01;;;;;;;2.47;1.30;;;;;;;;;;5055910;28;20068;-79
2021/07/27 04:23:28;;;;;;;3.50;1.40;;;;;;;;;;5046303;28;20550;-79
2021/07/27 04:25:57;;;;;;;1.88;1.08;;;;;;;;;;5089670;28;20062;-79
2021/07/27 04:28:23;;;;;;;1.60;1.20;;;;;;;;;;5101118;28;20056;-78
2021/07/27 04:30:50;;;;;;;2.10;1.05;;;;;;;;;;5075240;28;20494;-79
2021/07/27 04:33:17;;;;;;;1.40;0.93;;;;;;;;;;5103065;28;20043;-80
2021/07/27 04:35:44;;;;;;;0.75;0.75;;;;;;;;;;5070955;28;20087;-79
2021/07/27 04:38:11;;;;;;;2.08;0.80;;;;;;;;;;5071252;28;20122;-78
2021/07/27 04:40:37;;;;;;;1.58;1.00;;;;;;;;;;5083295;28;20040;-79
2021/07/27 04:43:03;;;;;;;1.92;1.13;;;;;;;;;;5097261;28;20059;-79
2021/07/27 04:45:31;;;;;;;2.35;1.02;;;;;;;;;;5103090;28;20047;-79
2021/07/27 04:47:58;;;;;;;1.30;1.00;;;;;;;;;;5072746;28;20040;-79
2021/07/27 04:50:29;;;;;;;2.15;1.13;;;;;;;;;;5076277;28;20489;-80
2021/07/27 04:53:10;;;;;;;2.00;1.00;;;;;;;;;;5065438;28;20102;-79
2021/07/27 04:55:37;;;;;;;2.22;1.30;;;;;;;;;;5066985;28;20044;-83
2021/07/27 04:58:05;;;;;;;2.30;1.40;;;;;;;;;;5101536;28;20047;-79
2021/07/27 05:00:32;;;;;;;1.98;1.20;;;;;;;;;;5073378;28;20047;-79
2021/07/27 05:02:58;;;;;;;1.55;1.15;;;;;;;;;;5059144;28;20044;-79
2021/07/27 05:05:25;;;;;;;1.77;1.17;;;;;;;;;;5101822;28;20039;-78
2021/07/27 05:07:55;;;;;;;2.08;1.00;;;;;;;;;;5059385;28;20458;-78
2021/07/27 05:10:22;;;;;;;1.10;0.60;;;;;;;;;;5045238;28;20505;-79
2021/07/27 05:12:48;;;;;;;2.03;0.90;;;;;;;;;;5083777;28;20376;-79
2021/07/27 05:15:15;;;;;;;0.93;0.70;;;;;;;;;;5084961;28;20036;-79
2021/07/27 05:17:45;;;;;;;1.15;0.80;;;;;;;;;;5103648;28;20050;-79
2021/07/27 05:20:12;;;;;;;1.58;0.80;;;;;;;;;;5098445;28;20039;-79
2021/07/27 05:22:39;;;;;;;0.45;0.45;;;;;;;;;;5051343;28;20387;-79
2021/07/27 05:25:06;;;;;;;1.33;0.80;;;;;;;;;;5033790;28;20466;-84
2021/07/27 05:27:34;;;;;;;2.65;0.60;;;;;;;;;;5047478;28;20040;-79
2021/07/27 05:30:01;;;;;;;1.60;0.68;;;;;;;;;;5089733;28;20047;-79
2021/07/27 05:32:28;;;;;;;1.42;0.65;;;;;;;;;;5090186;28;20108;-80
2021/07/27 05:34:54;;;;;;;2.42;0.57;;;;;;;;;;5101138;28;20469;-79
2021/07/27 05:37:21;;;;;;;0.80;0.70;;;;;;;;;;5072325;28;20101;-79
2021/07/27 05:39:48;;;;;;;1.27;0.50;;;;;;;;;;5094633;28;20054;-83
2021/07/27 05:42:14;;;;;;;0.77;0.70;;;;;;;;;;5074630;28;20042;-79
2021/07/27 05:44:41;;;;;;;0.85;0.50;;;;;;;;;;5099962;28;20551;-79
2021/07/27 05:47:08;;;;;;;0.50;0.50;;;;;;;;;;5101791;28;20115;-78
2021/07/27 05:49:37;;;;;;;1.00;0.75;;;;;;;;;;5084686;28;20047;-79
2021/07/27 05:52:11;;;;;;;0.40;0.40;;;;;;;;;;5102688;28;20405;-79
2021/07/27 05:54:39;;;;;;;0.68;0.57;;;;;;;;;;5099526;28;20521;-85
2021/07/27 05:57:12;;;;;;;2.45;0.65;;;;;;;;;;5055492;28;20044;-79
2021/07/27 05:59:40;;;;;;;0.68;0.55;;;;;;;;;;5080511;28;20040;-81
2021/07/27 06:02:08;;;;;;;2.78;1.75;;;;;;;;;;5096621;28;20085;-79
2021/07/27 06:04:35;;;;;;;3.38;1.67;;;;;;;;;;5082975;28;20047;-78
2021/07/27 06:07:06;;;;;;;2.85;1.50;;;;;;;;;;5102776;28;20042;-79
2021/07/27 06:09:33;;;;;;;1.90;1.20;;;;;;;;;;5053434;28;20533;-80
2021/07/27 06:12:00;;;;;;;2.60;0.93;;;;;;;;;;5065681;28;20051;-79
2021/07/27 06:14:26;;;;;;;2.78;1.60;;;;;;;;;;5069646;28;20117;-79
2021/07/27 06:16:53;;;;;;;4.05;1.60;;;;;;;;;;5089124;28;20044;-79
2021/07/27 06:19:19;;;;;;;4.32;1.70;;;;;;;;;;5057903;28;20062;-79
2021/07/27 06:21:46;;;;;;;4.40;2.22;;;;;;;;;;5049214;28;20102;-79
2021/07/27 06:24:12;;;;;;;4.82;1.75;;;;;;;;;;5070699;28;20126;-79
2021/07/27 06:26:39;;;;;;;4.85;1.77;;;;;;;;;;5055989;28;20457;-85
2021/07/27 06:29:07;;;;;;;3.30;1.65;;;;;;;;;;5073053;28;20043;-79
2021/07/27 06:31:33;;;;;;;4.50;1.70;;;;;;;;;;5089406;28;20051;-79
2021/07/27 06:34:00;;;;;;;2.58;1.27;;;;;;;;;;5070104;28;20040;-85
2021/07/27 06:36:28;;;;;;;4.50;1.42;;;;;;;;;;5082478;28;20044;-79
2021/07/27 06:38:57;;;;;;;2.80;1.10;;;;;;;;;;5072760;28;20046;-79
2021/07/27 06:41:24;;;;;;;2.70;1.20;;;;;;;;;;5083164;28;20122;-79
2021/07/27 06:43:50;;;;;;;3.75;1.38;;;;;;;;;;5083106;28;20043;-79
2021/07/27 06:46:17;;;;;;;4.63;1.65;;;;;;;;;;5100898;28;20049;-78
2021/07/27 06:48:46;;;;;;;4.72;2.10;;;;;;;;;;5046849;28;20486;-79
2021/07/27 06:51:16;;;;;;;4.00;1.70;;;;;;;;;;5043798;28;20040;-79
2021/07/27 06:53:44;;;;;;;5.15;1.73;;;;;;;;;;5089011;28;20044;-80
2021/07/27 06:56:12;;;;;;;4.90;2.03;;;;;;;;;;5090772;28;20036;-78
2021/07/27 06:58:39;;;;;;;3.60;1.35;;;;;;;;;;5059168;28;20044;-78
2021/07/27 07:01:10;;;;;;;4.25;1.73;;;;;;;;;;5075064;28;20068;-79
2021/07/27 07:03:40;;;;;;;4.25;1.58;;;;;;;;;;5095754;28;20044;-79
2021/07/27 07:06:07;;;;;;;5.50;2.17;;;;;;;;;;5054776;28;20055;-79
2021/07/27 07:08:35;;;;;;;6.32;2.70;;;;;;;;;;5102106;28;20063;-78
2021/07/27 07:11:02;;;;;;;;;;;;;;;;;;5063433;28;20044;-79
2021/07/27 07:13:29;;;;;;;;;;;;;;;;;;5051958;28;19916;-79
2021/07/27 07:15:55;;;;;;;0.95;0.60;;;;;;;;;;5075796;28;19924;-81
2021/07/27 07:18:23;;;;;;;2.78;0.63;;;;;;;;;;5075490;28;20385;-80
2021/07/27 07:20:51;;;;;;;2.00;0.75;;;;;;;;;;5104302;28;20054;-82
2021/07/27 07:23:20;;;;;;;2.28;0.68;;;;;;;;;;5078498;28;20546;-80
2021/07/27 07:25:50;;;;;;;1.10;0.68;;;;;;;;;;5064280;28;20069;-78
2021/07/27 07:28:21;;;;;;;1.02;0.60;;;;;;;;;;5065270;28;20043;-79
2021/07/27 07:30:48;;;;;;;1.13;0.30;;;;;;;;;;5085965;28;20059;-79
2021/07/27 07:33:17;;;;;;;0.43;0.40;;;;;;;;;;5060200;28;20567;-79
2021/07/27 07:35:43;;;;;;;0.55;0.35;;;;;;;;;;5065859;28;20079;-79
2021/07/27 07:38:10;;;;;;;0.43;0.40;;;;;;;;;;5075547;28;20044;-79
2021/07/27 07:40:37;;;;;;;0.40;0.40;;;;;;;;;;5087436;28;20051;-79
2021/07/27 07:43:04;;;;;;;0.73;0.50;;;;;;;;;;5102652;28;20130;-85
2021/07/27 07:45:31;;;;;;;0.85;0.40;;;;;;;;;;5071008;28;20055;-78
2021/07/27 07:47:58;;;;;;;0.40;0.40;;;;;;;;;;5077635;28;20487;-78
2021/07/27 07:50:28;;;;;;;0.57;0.30;;;;;;;;;;5064376;28;20490;-78
2021/07/27 07:53:00;;;;;;;1.98;0.50;;;;;;;;;;5073928;28;20122;-79
2021/07/27 07:55:28;;;;;;;0.28;0.28;;;;;;;;;;5105210;28;20067;-79
2021/07/27 07:57:56;;;;;;;0.40;0.40;;;;;;;;;;5082131;28;20123;-79
2021/07/27 08:00:25;;;;;;;0.60;0.50;;;;;;;;;;5088175;28;20131;-81
2021/07/27 08:02:53;;;;;;;0.30;0.30;;;;;;;;;;5103395;28;20048;-79
2021/07/27 08:05:20;;;;;;;0.30;0.30;;;;;;;;;;5075957;28;20048;-82
2021/07/27 08:07:48;;;;;;;0.20;0.20;;;;;;;;;;5084535;28;20105;-78
2021/07/27 08:10:15;;;;;;;0.38;0.38;;;;;;;;;;5093502;28;20090;-79
2021/07/27 08:12:43;;;;;;;0.47;0.43;;;;;;;;;;5102078;28;20088;-79
2021/07/27 08:15:10;;;;;;;0.30;0.30;;;;;;;;;;5080775;28;20452;-79
2021/07/27 08:17:37;;;;;;;0.30;0.30;;;;;;;;;;5065805;28;20056;-84
2021/07/27 08:20:05;;;;;;;0.63;0.40;;;;;;;;;;5102004;28;20036;-79
2021/07/27 08:22:31;;;;;;;0.90;0.40;;;;;;;;;;5063692;28;20046;-81
2021/07/27 08:25:01;;;;;;;0.40;0.40;;;;;;;;;;5081296;28;20040;-78
2021/07/27 08:27:28;;;;;;;0.85;0.60;;;;;;;;;;5071556;28;20040;-79
2021/07/27 08:29:55;;;;;;;1.40;0.63;;;;;;;;;;5090369;28;20046;-80
2021/07/27 08:32:25;;;;;;;0.38;0.32;;;;;;;;;;5070544;28;20107;-80
2021/07/27 08:34:51;;;;;;;0.47;0.40;;;;;;;;;;5052819;28;20537;-79
2021/07/27 08:37:18;;;;;;;1.10;0.30;;;;;;;;;;5073006;28;20491;-79
2021/07/27 08:39:46;;;;;;;1.60;0.63;;;;;;;;;;5091598;28;20354;-79
2021/07/27 08:42:14;;;;;;;0.75;0.45;;;;;;;;;;5077606;28;20040;-80
2021/07/27 08:44:45;;;;;;;0.75;0.50;;;;;;;;;;5080686;28;20184;-79
2021/07/27 08:47:24;;;;;;;0.57;0.35;;;;;;;;;;5060639;28;20044;-79
2021/07/27 08:49:50;;;;;;;1.25;0.40;;;;;;;;;;5048552;28;20043;-86
2021/07/27 08:52:17;;;;;;;4.32;0.50;;;;;;;;;;5096368;28;20127;-78
2021/07/27 08:54:50;;;;;;;0.40;0.40;;;;;;;;;;5068371;28;20541;-86
2021/07/27 08:57:17;;;;;;;0.50;0.50;;;;;;;;;;5077199;28;20262;-79
2021/07/27 08:59:45;;;;;;;1.48;0.73;;;;;;;;;;5059518;28;20069;-79
2021/07/27 09:02:11;;;;;;;1.73;1.08;;;;;;;;;;5041555;28;20047;-79
2021/07/27 09:04:38;;;;;;;0.80;0.75;;;;;;;;;;5081954;28;20072;-80
2021/07/27 09:07:06;;;;;;;1.15;0.80;;;;;;;;;;5038980;28;20102;-86
2021/07/27 09:09:36;;;;;;;0.93;0.80;;;;;;;;;;5083689;28;20036;-78
2021/07/27 09:12:09;;;;;;;3.45;0.80;;;;;;;;;;5083199;28;20047;-79
2021/07/27 09:14:43;;;;;;;1.35;0.90;;;;;;;;;;5101622;28;20094;-79
2021/07/27 09:17:10;;;;;;;1.50;0.98;;;;;;;;;;5083639;28;20039;-79
2021/07/27 09:19:40;;;;;;;1.88;1.08;;;;;;;;;;5104256;28;20046;-79
2021/07/27 09:22:07;;;;;;;2.35;1.20;;;;;;;;;;5092828;28;20497;-79
2021/07/27 09:24:34;;;;;;;1.60;1.15;;;;;;;;;;5101013;28;20043;-79
2021/07/27 09:27:06;;;;;;;2.08;0.90;;;;;;;;;;5074588;28;20060;-82
2021/07/27 09:29:43;;;;;;;3.05;1.30;;;;;;;;;;5100449;28;20044;-79
2021/07/27 09:32:16;;;;;;;3.08;1.00;;;;;;;;;;5098088;28;20090;-79
2021/07/27 09:34:43;;;;;;;1.65;0.80;;;;;;;;;;5071114;28;20050;-79
2021/07/27 09:37:09;;;;;;;1.13;0.73;;;;;;;;;;5058451;28;20055;-79
2021/07/27 09:39:38;;;;;;;1.60;0.68;;;;;;;;;;5040744;28;20464;-79
2021/07/27 09:42:13;;;;;;;2.22;1.17;;;;;;;;;;5095530;28;20116;-79
2021/07/27 09:44:42;;;;;;;2.35;1.00;;;;;;;;;;5079216;28;20036;-79
2021/07/27 09:47:08;;;;;;;2.08;1.20;;;;;;;;;;5071012;28;20074;-80
2021/07/27 09:49:36;;;;;;;3.08;1.10;;;;;;;;;;5081640;28;20484;-79
2021/07/27 09:52:02;;;;;;;1.42;0.90;;;;;;;;;;5078474;28;20478;-79
2021/07/27 09:54:29;;;;;;;1.10;0.60;;;;;;;;;;5073082;28;20429;-83
2021/07/27 09:56:57;;;;;;;1.42;1.00;;;;;;;;;;5064587;28;20050;-79
2021/07/27 09:59:25;;;;;;;2.50;1.25;;;;;;;;;;5083112;28;20043;-80
2021/07/27 10:01:54;;;;;;;2.30;1.13;;;;;;;;;;5069439;28;20055;-79
2021/07/27 10:04:52;;;;;;;1.65;0.82;;;;;;;;;;5098557;28;20051;-79
2021/07/27 10:07:30;;;;;;;0.95;0.63;;;;;;;;;;5085027;28;20781;-79
2021/07/27 10:10:11;;;;;;;0.80;0.68;;;;;;;;;;5083470;28;20043;-79
2021/07/27 10:12:38;;;;;;;1.70;0.70;;;;;;;;;;5076692;28;20494;-79
2021/07/27 10:15:18;;;;;;;2.60;1.00;;;;;;;;;;5072790;28;20043;-82
2021/07/27 10:17:53;;;;;;;4.28;1.40;;;;;;;;;;5101792;28;20043;-79
2021/07/27 10:20:28;;;;;;;4.05;1.15;;;;;;;;;;5040204;28;20107;-80
2021/07/27 10:22:55;;;;;;;2.80;1.30;;;;;;;;;;5074193;28;20051;-79
2021/07/27 10:25:22;;;;;;;4.05;1.45;;;;;;;;;;5061556;28;20797;-80
2021/07/27 10:27:54;;;;;;;1.77;1.27;;;;;;;;;;5082025;28;20074;-81
2021/07/27 10:30:33;;;;;;;1.58;1.15;;;;;;;;;;5104157;28;20413;-80
2021/07/27 10:33:02;;;;;;;1.38;1.17;;;;;;;;;;5070065;28;20036;-80
2021/07/27 10:35:32;;;;;;;2.95;1.17;;;;;;;;;;5088991;28;20119;-79
2021/07/27 10:38:11;;;;;;;2.22;0.88;;;;;;;;;;5080007;28;20064;-79
2021/07/27 10:40:38;;;;;;;3.38;1.00;;;;;;;;;;5095789;28;20125;-81
2021/07/27 10:43:07;;;;;;;2.38;1.02;;;;;;;;;;5077047;28;20139;-85
2021/07/27 10:45:38;;;;;;;2.70;0.90;;;;;;;;;;5073570;28;20055;-84
2021/07/27 10:48:09;;;;;;;1.27;0.82;;;;;;;;;;5066940;28;20043;-80
2021/07/27 10:50:36;;;;;;;3.83;1.30;;;;;;;;;;5059930;28;20177;-80
2021/07/27 10:53:06;;;;;;;3.42;1.00;;;;;;;;;;5069612;28;20042;-80
2021/07/27 10:55:33;;;;;;;4.38;1.20;;;;;;;;;;5079776;28;20040;-80
2021/07/27 10:58:04;;;;;;;2.75;1.10;;;;;;;;;;5064196;28;20197;-86
2021/07/27 11:00:34;;;;;;;3.05;1.27;;;;;;;;;;5082207;28;20139;-81
2021/07/27 11:03:02;;;;;;;4.25;1.38;;;;;;;;;;5082562;28;20063;-85
2021/07/27 11:05:31;;;;;;;2.70;1.10;;;;;;;;;;5103084;28;20036;-79
2021/07/27 11:07:57;;;;;;;2.00;1.20;;;;;;;;;;5077352;28;20075;-83
2021/07/27 11:10:25;;;;;;;5.75;1.50;;;;;;;;;;5103322;28;20040;-80
2021/07/27 11:12:52;;;;;;;3.63;1.48;;;;;;;;;;5051362;28;20039;-80
2021/07/27 11:15:23;;;;;;;3.17;1.27;;;;;;;;;;5103281;28;20143;-80
2021/07/27 11:18:02;;;;;;;3.83;1.70;;;;;;;;;;5100234;28;20040;-81
2021/07/27 11:20:37;;;;;;;2.92;1.60;;;;;;;;;;5105350;28;20042;-80
2021/07/27 11:23:19;;;;;;;3.35;1.20;;;;;;;;;;5085478;28;20570;-81
2021/07/27 11:25:53;;;;;;;4.10;1.48;;;;;;;;;;5054712;28;20110;-80
2021/07/27 11:28:21;;;;;;;2.47;1.55;;;;;;;;;;5065395;28;20799;-81
2021/07/27 11:30:47;;;;;;;4.45;1.85;;;;;;;;;;5052723;28;20126;-80
2021/07/27 11:33:18;;;;;;;4.50;1.58;;;;;;;;;;5083256;28;20039;-81
2021/07/27 11:35:52;;;;;;;5.07;1.70;;;;;;;;;;5080458;28;20079;-80
2021/07/27 11:38:29;;;;;;;3.47;1.83;;;;;;;;;;5069951;28;20046;-84
2021/07/27 11:41:09;;;;;;;5.32;1.90;;;;;;;;;;5084273;28;20124;-81
2021/07/27 11:43:38;;;;;;;3.92;1.70;;;;;;;;;;5056684;28;20153;-81
2021/07/27 11:46:19;;;;;;;4.80;2.00;;;;;;;;;;5083735;28;20035;-81
2021/07/27 11:48:53;;;;;;;3.92;1.73;;;;;;;;;;5103119;28;20036;-80
2021/07/27 11:51:36;;;;;;;3.25;1.70;;;;;;;;;;5062056;28;20066;-79
2021/07/27 11:54:03;;;;;;;7.97;2.00;;;;;;;;;;5023776;28;20425;-83
2021/07/27 11:56:29;;;;;;;4.80;2.30;;;;;;;;;;5038126;28;20108;-85
2021/07/27 11:59:06;;;;;;;5.40;2.63;;;;;;;;;;5054301;28;20104;-82
2021/07/27 12:01:44;;;;;;;12.80;3.08;;;;;;;;;;5071082;28;20041;-83
2021/07/27 12:04:10;;;;;;;10.60;2.15;;;;;;;;;;5045010;28;20097;-88
2021/07/27 12:06:53;;;;;;;6.15;2.45;;;;;;;;;;5083782;28;20049;-84
2021/07/27 12:09:24;;;;;;;6.63;2.10;;;;;;;;;;5020160;28;20115;-85
2021/07/27 12:11:52;;;;;;;5.88;2.50;;;;;;;;;;5027787;28;20146;-83
2021/07/27 12:14:19;;;;;;;11.35;2.80;;;;;;;;;;5061285;28;20044;-83
2021/07/27 12:16:47;;;;;;;6.80;2.28;;;;;;;;;;5048767;28;20040;-84
2021/07/27 12:19:14;;;;;;;7.53;2.38;;;;;;;;;;5067035;28;20451;-83
2021/07/27 12:21:42;;;;;;;8.38;3.17;;;;;;;;;;5073981;28;20071;-88
2021/07/27 12:24:08;;;;;;;9.93;2.72;;;;;;;;;;5056359;28;20041;-88
2021/07/27 12:26:41;;;;;;;;;;;;;;;;;;5081222;28;20130;-92
2021/07/27 12:29:08;;;;;;;9.43;3.00;;;;;;;;;;4993781;28;19927;-91
2021/07/27 12:31:34;;;;;;;9.00;2.85;;;;;;;;;;5071725;28;20062;-92
2021/07/27 12:34:02;;;;;;;10.57;3.17;;;;;;;;;;5070652;28;20048;-84
2021/07/27 12:36:28;;;;;;;8.93;2.95;;;;;;;;;;5095856;28;20051;-84
2021/07/27 12:38:55;;;;;;;6.05;2.72;;;;;;;;;;5079690;28;20118;-79
2021/07/27 12:41:27;;;;;;;14.75;4.32;;;;;;;;;;5080304;28;20443;-81
2021/07/27 12:43:54;;;;;;;10.65;3.33;;;;;;;;;;5063870;28;20117;-80
2021/07/27 12:46:24;;;;;;;13.27;3.67;;;;;;;;;;5080040;28;20109;-82
2021/07/27 12:48:52;;;;;;;11.05;4.15;;;;;;;;;;5080895;28;20130;-81
2021/07/27 12:51:19;;;;;;;11.02;3.53;;;;;;;;;;5074483;28;20114;-82
2021/07/27 12:53:51;;;;;;;8.82;2.88;;;;;;;;;;5080359;28;21390;-81
2021/07/27 12:56:18;;;;;;;7.63;3.10;;;;;;;;;;5040642;28;20446;-80
2021/07/27 12:58:49;;;;;;;9.73;3.58;;;;;;;;;;5033049;28;20048;-80
2021/07/27 13:01:16;;;;;;;12.10;3.63;;;;;;;;;;5073864;28;20044;-78
2021/07/27 13:03:46;;;;;;;10.88;3.30;;;;;;;;;;5082368;28;20131;-80
2021/07/27 13:06:13;;;;;;;11.18;3.60;;;;;;;;;;5066242;28;20071;-83
2021/07/27 13:08:39;;;;;;;10.20;3.03;;;;;;;;;;5068303;28;20570;-77
2021/07/27 13:11:06;;;;;;;11.38;3.28;;;;;;;;;;5070878;28;20050;-78
2021/07/27 13:13:32;;;;;;;7.70;3.10;;;;;;;;;;5071533;28;20440;-77
2021/07/27 13:15:59;;;;;;;11.68;3.38;;;;;;;;;;5081740;28;20044;-77
2021/07/27 13:18:25;;;;;;;10.43;3.08;;;;;;;;;;5076143;28;20044;-76
2021/07/27 13:20:54;;;;;;;7.68;2.50;;;;;;;;;;5081887;28;20060;-77
2021/07/27 13:23:22;;;;;;;11.05;3.33;;;;;;;;;;5080795;28;20451;-77
2021/07/27 13:25:48;;;;;;;8.65;3.10;;;;;;;;;;5068517;28;20553;-77
2021/07/27 13:28:15;;;;;;;9.75;3.00;;;;;;;;;;5075076;28;20040;-77
2021/07/27 13:30:44;;;;;;;5.88;2.10;;;;;;;;;;5078508;28;20056;-85
2021/07/27 13:33:11;;;;;;;9.10;3.22;;;;;;;;;;5081716;28;20044;-76
2021/07/27 13:35:38;;;;;;;7.85;3.58;;;;;;;;;;5049672;28;20101;-79
2021/07/27 13:38:04;;;;;;;12.57;3.17;;;;;;;;;;5070391;28;20040;-77
2021/07/27 13:40:31;;;;;;;9.02;2.80;;;;;;;;;;5079961;28;20082;-77
2021/07/27 13:42:57;;;;;;;8.95;2.67;;;;;;;;;;5078192;28;20397;-77
2021/07/27 13:45:25;;;;;;;9.82;2.97;;;;;;;;;;5078008;28;20067;-77
2021/07/27 13:47:51;;;;;;;7.85;2.92;;;;;;;;;;5078719;28;20055;-82
2021/07/27 13:50:18;;;;;;;10.45;2.75;;;;;;;;;;5070639;28;20074;-77
2021/07/27 13:52:44;;;;;;;8.25;3.00;;;;;;;;;;5079077;28;20051;-80
2021/07/27 13:55:11;;;;;;;9.30;3.10;;;;;;;;;;5080320;28;20071;-77
2021/07/27 13:57:37;;;;;;;12.18;2.80;;;;;;;;;;5063273;28;20056;-78
2021/07/27 14:00:05;;;;;;;12.63;2.70;;;;;;;;;;5077146;28;20482;-77
2021/07/27 14:02:32;;;;;;;8.35;1.98;;;;;;;;;;5070792;28;20063;-76
2021/07/27 14:04:58;;;;;;;10.63;2.67;;;;;;;;;;5078072;28;20410;-77
2021/07/27 14:07:25;;;;;;;8.73;2.28;;;;;;;;;;5079255;28;20498;-77
2021/07/27 14:09:57;;;;;;;9.75;2.10;;;;;;;;;;5067286;28;20044;-78
2021/07/27 14:12:24;;;;;;;7.18;2.33;;;;;;;;;;5079879;28;20040;-78
2021/07/27 14:14:50;;;;;;;9.68;2.80;;;;;;;;;;5081683;28;20047;-78
2021/07/27 14:17:17;;;;;;;11.63;2.65;;;;;;;;;;5082770;28;20160;-78
2021/07/27 14:19:44;;;;;;;10.02;2.40;;;;;;;;;;5081224;28;20040;-78
2021/07/27 14:22:14;;;;;;;8.77;2.38;;;;;;;;;;5082217;28;20040;-77
2021/07/27 14:24:41;;;;;;;9.10;2.55;;;;;;;;;;5081520;28;20036;-86
2021/07/27 14:27:09;;;;;;;12.13;2.67;;;;;;;;;;5080369;28;20044;-77
2021/07/27 14:29:36;;;;;;;11.50;2.33;;;;;;;;;;5075943;28;20478;-78
2021/07/27 14:32:02;;;;;;;8.75;2.38;;;;;;;;;;5080460;28;20395;-83
2021/07/27 14:34:29;;;;;;;8.32;2.13;;;;;;;;;;5081889;28;20406;-78
2021/07/27 14:36:55;;;;;;;8.50;2.35;;;;;;;;;;5080468;28;20044;-79
2021/07/27 14:39:22;;;;;;;7.43;2.72;;;;;;;;;;5067235;28;20467;-78
2021/07/27 14:41:48;;;;;;;8.98;2.22;;;;;;;;;;5080347;28;20052;-79
2021/07/27 14:44:15;;;;;;;13.23;2.80;;;;;;;;;;5066209;28;20036;-78
2021/07/27 14:46:42;;;;;;;8.00;2.13;;;;;;;;;;5079655;28;20144;-79
2021/07/27 14:49:09;;;;;;;7.55;1.88;;;;;;;;;;5081118;28;20048;-86
2021/07/27 14:51:35;;;;;;;7.45;1.88;;;;;;;;;;5086452;28;20089;-78
2021/07/27 14:54:02;;;;;;;10.27;2.35;;;;;;;;;;5082222;28;20040;-79
2021/07/27 14:56:28;;;;;;;8.35;2.83;;;;;;;;;;5080122;28;20044;-77
2021/07/27 14:58:55;;;;;;;14.90;2.83;;;;;;;;;;5081262;28;20055;-80
2021/07/27 15:01:22;;;;;;;10.20;1.95;;;;;;;;;;5081156;28;20056;-78
2021/07/27 15:03:48;;;;;;;10.20;2.30;;;;;;;;;;5081714;28;20044;-77
2021/07/27 15:06:15;;;;;;;7.70;1.85;;;;;;;;;;5081865;28;20584;-77
2021/07/27 15:08:41;;;;;;;5.65;1.70;;;;;;;;;;5081577;28;20051;-76